logo
Rechercher aéroport 
image banner adimage banner adimage banner ad
image banner ad

KNID - China Lake Naws (Armitage Fld)

Situé à China Lake, United States

ICAO - NID, IATA -

Données fournies par Airmate  

Information générale

Coordonnées: N35°41'9" W117°41'32"
Élévation : 2284 feet MSL.
Variation magnétique : 14° East
Voir autres Aéroports à California

Données opérationnelles

Special qualification required
Heure actuelle UTC:
Heure actuelle locale:
Météo
METAR: KNID 281256Z 20008KT 10SM CLR 19/02 A3000 RMK AO2 SLP136 T01940022 PNO $
TAF: TAF AMD KNID 2805/2823 23006KT 9999 SKC QNH2997INS WND VRB05KT AFT 2814 BECMG 2818/2820 18008KT 9999 FEW100 FEW250 QNH2995INS BECMG 2821/2823 21014G24KT 9999 FEW100 FEW250 QNH2992INS LAST NO AMD AFT 2805 NEXT 2815 T17/2813Z T38/2823Z AMD 0505
Voir NOTAMs / SUP AIP / TFR affectant cet aéroport [VIEW]
Fréquences de communication: [VIEW]

Pistes:

Identifiant RWYQFULongueur (ft)Largeur (ft)SurfaceLDA (ft)
0342°10001200CONC
21222°10001200CONC
0890°711175CONC
26270°711175CONC
14154°9014200ASPH
32334°9014200ASPH

Coordonnées de l'aéroport

Adresse: China Lake United States

Vue satellite de KNID